sensor_id;sensor_type;location;lat;lon;timestamp;temperature;humidity
52543;DHT22;38449;52.696;6.186;2023-08-01T00:00:08;16.90;99.90
52543;DHT22;38449;52.696;6.186;2023-08-01T00:02:35;16.80;99.90
52543;DHT22;38449;52.696;6.186;2023-08-01T00:05:01;16.90;99.90
52543;DHT22;38449;52.696;6.186;2023-08-01T00:07:28;16.90;99.90
52543;DHT22;38449;52.696;6.186;2023-08-01T00:09:54;16.70;99.90
52543;DHT22;38449;52.696;6.186;2023-08-01T00:12:20;16.90;99.90
52543;DHT22;38449;52.696;6.186;2023-08-01T00:14:46;16.80;99.90
52543;DHT22;38449;52.696;6.186;2023-08-01T00:17:13;16.80;99.90
52543;DHT22;38449;52.696;6.186;2023-08-01T00:19:39;16.70;99.90
52543;DHT22;38449;52.696;6.186;2023-08-01T00:22:05;16.70;99.90
52543;DHT22;38449;52.696;6.186;2023-08-01T00:24:32;16.70;99.90
52543;DHT22;38449;52.696;6.186;2023-08-01T00:26:58;16.80;99.90
52543;DHT22;38449;52.696;6.186;2023-08-01T00:29:24;16.70;99.90
52543;DHT22;38449;52.696;6.186;2023-08-01T00:31:51;16.80;99.90
52543;DHT22;38449;52.696;6.186;2023-08-01T00:34:17;16.80;99.90
52543;DHT22;38449;52.696;6.186;2023-08-01T00:36:43;16.60;99.90
52543;DHT22;38449;52.696;6.186;2023-08-01T00:39:09;16.60;99.90
52543;DHT22;38449;52.696;6.186;2023-08-01T00:41:35;16.60;99.90
52543;DHT22;38449;52.696;6.186;2023-08-01T00:44:02;16.60;99.90
52543;DHT22;38449;52.696;6.186;2023-08-01T00:46:29;16.60;99.90
52543;DHT22;38449;52.696;6.186;2023-08-01T00:48:55;16.50;99.90
52543;DHT22;38449;52.696;6.186;2023-08-01T00:51:24;16.70;99.90
52543;DHT22;38449;52.696;6.186;2023-08-01T00:53:52;16.70;99.90
52543;DHT22;38449;52.696;6.186;2023-08-01T00:56:19;16.60;99.90
52543;DHT22;38449;52.696;6.186;2023-08-01T00:58:45;16.60;99.90
52543;DHT22;38449;52.696;6.186;2023-08-01T01:01:11;16.50;99.90
52543;DHT22;38449;52.696;6.186;2023-08-01T01:03:38;16.50;99.90
52543;DHT22;38449;52.696;6.186;2023-08-01T01:08:31;16.60;99.90
52543;DHT22;38449;52.696;6.186;2023-08-01T01:10:57;16.50;99.90
52543;DHT22;38449;52.696;6.186;2023-08-01T01:13:24;16.50;99.90
52543;DHT22;38449;52.696;6.186;2023-08-01T01:15:50;16.40;99.90
52543;DHT22;38449;52.696;6.186;2023-08-01T01:18:16;16.40;99.90
52543;DHT22;38449;52.696;6.186;2023-08-01T01:20:43;16.20;99.90
52543;DHT22;38449;52.696;6.186;2023-08-01T01:23:09;16.30;99.90
52543;DHT22;38449;52.696;6.186;2023-08-01T01:25:37;16.20;99.90
52543;DHT22;38449;52.696;6.186;2023-08-01T01:28:06;16.20;99.90
52543;DHT22;38449;52.696;6.186;2023-08-01T01:30:33;16.10;99.90
52543;DHT22;38449;52.696;6.186;2023-08-01T01:33:00;16.00;99.90
52543;DHT22;38449;52.696;6.186;2023-08-01T01:35:28;16.00;99.90
52543;DHT22;38449;52.696;6.186;2023-08-01T01:37:55;16.00;99.90
52543;DHT22;38449;52.696;6.186;2023-08-01T01:40:21;16.10;99.90
52543;DHT22;38449;52.696;6.186;2023-08-01T01:42:47;16.00;99.90
52543;DHT22;38449;52.696;6.186;2023-08-01T01:45:15;16.00;99.90
52543;DHT22;38449;52.696;6.186;2023-08-01T01:47:41;16.10;99.90
52543;DHT22;38449;52.696;6.186;2023-08-01T01:50:08;16.00;99.90
52543;DHT22;38449;52.696;6.186;2023-08-01T01:52:34;16.00;99.90
52543;DHT22;38449;52.696;6.186;2023-08-01T01:55:00;16.00;99.90
52543;DHT22;38449;52.696;6.186;2023-08-01T01:57:27;16.20;99.90
52543;DHT22;38449;52.696;6.186;2023-08-01T01:59:53;16.10;99.90
52543;DHT22;38449;52.696;6.186;2023-08-01T02:02:19;16.20;99.90
52543;DHT22;38449;52.696;6.186;2023-08-01T02:04:50;16.20;99.90
52543;DHT22;38449;52.696;6.186;2023-08-01T02:07:17;16.10;99.90
52543;DHT22;38449;52.696;6.186;2023-08-01T02:09:43;16.10;99.90
52543;DHT22;38449;52.696;6.186;2023-08-01T02:12:11;16.20;99.90
52543;DHT22;38449;52.696;6.186;2023-08-01T02:14:40;16.20;99.90
52543;DHT22;38449;52.696;6.186;2023-08-01T02:17:06;16.10;99.90
52543;DHT22;38449;52.696;6.186;2023-08-01T02:19:34;16.20;99.90
52543;DHT22;38449;52.696;6.186;2023-08-01T02:22:00;16.10;99.90
52543;DHT22;38449;52.696;6.186;2023-08-01T02:24:26;16.20;99.90
52543;DHT22;38449;52.696;6.186;2023-08-01T02:26:53;16.10;99.90
52543;DHT22;38449;52.696;6.186;2023-08-01T02:29:19;16.00;99.90
52543;DHT22;38449;52.696;6.186;2023-08-01T02:31:45;16.00;99.90
52543;DHT22;38449;52.696;6.186;2023-08-01T02:34:11;15.90;99.90
52543;DHT22;38449;52.696;6.186;2023-08-01T02:36:37;16.00;99.90
52543;DHT22;38449;52.696;6.186;2023-08-01T02:39:06;15.80;99.90
52543;DHT22;38449;52.696;6.186;2023-08-01T02:41:33;15.80;99.90
52543;DHT22;38449;52.696;6.186;2023-08-01T02:43:59;15.80;99.90
52543;DHT22;38449;52.696;6.186;2023-08-01T02:46:25;15.70;99.90
52543;DHT22;38449;52.696;6.186;2023-08-01T02:48:54;15.80;99.90
52543;DHT22;38449;52.696;6.186;2023-08-01T02:51:20;15.60;99.90
52543;DHT22;38449;52.696;6.186;2023-08-01T02:53:46;15.70;99.90
52543;DHT22;38449;52.696;6.186;2023-08-01T02:56:12;15.60;99.90
52543;DHT22;38449;52.696;6.186;2023-08-01T02:58:39;15.70;99.90
52543;DHT22;38449;52.696;6.186;2023-08-01T03:01:08;15.60;99.90
52543;DHT22;38449;52.696;6.186;2023-08-01T03:03:38;15.70;99.90
52543;DHT22;38449;52.696;6.186;2023-08-01T03:06:04;15.60;99.90
52543;DHT22;38449;52.696;6.186;2023-08-01T03:08:30;15.70;99.90
52543;DHT22;38449;52.696;6.186;2023-08-01T03:10:57;15.70;99.90
52543;DHT22;38449;52.696;6.186;2023-08-01T03:13:23;15.60;99.90
52543;DHT22;38449;52.696;6.186;2023-08-01T03:15:50;15.70;99.90
52543;DHT22;38449;52.696;6.186;2023-08-01T03:18:16;15.70;99.90
52543;DHT22;38449;52.696;6.186;2023-08-01T03:20:42;15.60;99.90
52543;DHT22;38449;52.696;6.186;2023-08-01T03:23:08;15.70;99.90
52543;DHT22;38449;52.696;6.186;2023-08-01T03:25:35;15.70;99.90
52543;DHT22;38449;52.696;6.186;2023-08-01T03:28:01;15.50;99.90
52543;DHT22;38449;52.696;6.186;2023-08-01T03:30:27;15.50;99.90
52543;DHT22;38449;52.696;6.186;2023-08-01T03:32:53;15.40;99.90
52543;DHT22;38449;52.696;6.186;2023-08-01T03:35:20;15.40;99.90
52543;DHT22;38449;52.696;6.186;2023-08-01T03:37:46;15.40;99.90
52543;DHT22;38449;52.696;6.186;2023-08-01T03:40:12;15.40;99.90
52543;DHT22;38449;52.696;6.186;2023-08-01T03:42:38;15.30;99.90
52543;DHT22;38449;52.696;6.186;2023-08-01T03:45:07;15.30;99.90
52543;DHT22;38449;52.696;6.186;2023-08-01T03:47:33;15.30;99.90
52543;DHT22;38449;52.696;6.186;2023-08-01T03:49:59;15.20;99.90
52543;DHT22;38449;52.696;6.186;2023-08-01T03:52:25;15.40;99.90
52543;DHT22;38449;52.696;6.186;2023-08-01T03:54:56;15.30;99.90
52543;DHT22;38449;52.696;6.186;2023-08-01T03:57:22;15.30;99.90
52543;DHT22;38449;52.696;6.186;2023-08-01T03:59:48;15.20;99.90
52543;DHT22;38449;52.696;6.186;2023-08-01T04:02:15;15.30;99.90
52543;DHT22;38449;52.696;6.186;2023-08-01T04:04:41;15.30;99.90
52543;DHT22;38449;52.696;6.186;2023-08-01T04:07:08;15.30;99.90
52543;DHT22;38449;52.696;6.186;2023-08-01T04:09:34;15.20;99.90
52543;DHT22;38449;52.696;6.186;2023-08-01T04:12:00;15.30;99.90
52543;DHT22;38449;52.696;6.186;2023-08-01T04:14:27;15.20;99.90
52543;DHT22;38449;52.696;6.186;2023-08-01T04:16:53;15.30;99.90
52543;DHT22;38449;52.696;6.186;2023-08-01T04:19:19;15.30;99.90
52543;DHT22;38449;52.696;6.186;2023-08-01T04:21:46;15.40;99.90
52543;DHT22;38449;52.696;6.186;2023-08-01T04:24:12;15.40;99.90
52543;DHT22;38449;52.696;6.186;2023-08-01T04:26:38;15.30;99.90
52543;DHT22;38449;52.696;6.186;2023-08-01T04:29:04;15.30;99.90
52543;DHT22;38449;52.696;6.186;2023-08-01T04:31:31;15.40;99.90
52543;DHT22;38449;52.696;6.186;2023-08-01T04:33:57;15.50;99.90
52543;DHT22;38449;52.696;6.186;2023-08-01T04:36:23;15.60;99.90
52543;DHT22;38449;52.696;6.186;2023-08-01T04:38:49;15.60;99.90
52543;DHT22;38449;52.696;6.186;2023-08-01T04:41:16;15.60;99.90
52543;DHT22;38449;52.696;6.186;2023-08-01T04:43:42;15.60;99.90
52543;DHT22;38449;52.696;6.186;2023-08-01T04:46:08;15.70;99.90
52543;DHT22;38449;52.696;6.186;2023-08-01T04:48:34;15.70;99.90
52543;DHT22;38449;52.696;6.186;2023-08-01T04:51:01;15.70;99.90
52543;DHT22;38449;52.696;6.186;2023-08-01T04:53:27;15.70;99.90
52543;DHT22;38449;52.696;6.186;2023-08-01T04:55:53;15.60;99.90
52543;DHT22;38449;52.696;6.186;2023-08-01T04:58:19;15.70;99.90
52543;DHT22;38449;52.696;6.186;2023-08-01T05:00:46;15.70;99.90
52543;DHT22;38449;52.696;6.186;2023-08-01T05:03:12;15.70;99.90
52543;DHT22;38449;52.696;6.186;2023-08-01T05:05:39;15.80;99.90
52543;DHT22;38449;52.696;6.186;2023-08-01T05:08:06;15.70;99.90
52543;DHT22;38449;52.696;6.186;2023-08-01T05:10:32;15.80;99.90
52543;DHT22;38449;52.696;6.186;2023-08-01T05:12:58;15.60;99.90
52543;DHT22;38449;52.696;6.186;2023-08-01T05:15:25;15.70;99.90
52543;DHT22;38449;52.696;6.186;2023-08-01T05:17:52;15.60;99.90
52543;DHT22;38449;52.696;6.186;2023-08-01T05:20:18;15.70;99.90
52543;DHT22;38449;52.696;6.186;2023-08-01T05:22:45;15.70;99.90
52543;DHT22;38449;52.696;6.186;2023-08-01T05:25:11;15.60;99.90
52543;DHT22;38449;52.696;6.186;2023-08-01T05:27:37;15.60;99.90
52543;DHT22;38449;52.696;6.186;2023-08-01T05:30:04;15.50;99.90
52543;DHT22;38449;52.696;6.186;2023-08-01T05:32:30;15.60;99.90
52543;DHT22;38449;52.696;6.186;2023-08-01T05:34:56;15.50;99.90
52543;DHT22;38449;52.696;6.186;2023-08-01T05:37:23;15.40;99.90
52543;DHT22;38449;52.696;6.186;2023-08-01T05:39:50;15.40;99.90
52543;DHT22;38449;52.696;6.186;2023-08-01T05:42:17;15.50;99.90
52543;DHT22;38449;52.696;6.186;2023-08-01T05:44:43;15.50;99.90
52543;DHT22;38449;52.696;6.186;2023-08-01T05:47:09;15.50;99.90
52543;DHT22;38449;52.696;6.186;2023-08-01T05:49:36;15.30;99.90
52543;DHT22;38449;52.696;6.186;2023-08-01T05:52:02;15.40;99.90
52543;DHT22;38449;52.696;6.186;2023-08-01T05:54:29;15.40;99.90
52543;DHT22;38449;52.696;6.186;2023-08-01T05:56:55;15.40;99.90
52543;DHT22;38449;52.696;6.186;2023-08-01T05:59:21;15.50;99.90
52543;DHT22;38449;52.696;6.186;2023-08-01T06:01:48;15.50;99.90
52543;DHT22;38449;52.696;6.186;2023-08-01T06:04:14;15.50;99.90
52543;DHT22;38449;52.696;6.186;2023-08-01T06:06:40;15.60;99.90
52543;DHT22;38449;52.696;6.186;2023-08-01T06:09:06;15.50;99.90
52543;DHT22;38449;52.696;6.186;2023-08-01T06:11:33;15.60;99.90
52543;DHT22;38449;52.696;6.186;2023-08-01T06:13:59;15.50;99.90
52543;DHT22;38449;52.696;6.186;2023-08-01T06:16:25;15.50;99.90
52543;DHT22;38449;52.696;6.186;2023-08-01T06:18:52;15.60;99.90
52543;DHT22;38449;52.696;6.186;2023-08-01T06:21:18;15.60;99.90
52543;DHT22;38449;52.696;6.186;2023-08-01T06:23:45;15.60;99.90
52543;DHT22;38449;52.696;6.186;2023-08-01T06:26:11;15.60;99.90
52543;DHT22;38449;52.696;6.186;2023-08-01T06:28:37;15.70;99.90
52543;DHT22;38449;52.696;6.186;2023-08-01T06:31:03;15.70;99.90
52543;DHT22;38449;52.696;6.186;2023-08-01T06:33:30;15.90;99.90
52543;DHT22;38449;52.696;6.186;2023-08-01T06:35:56;15.90;99.90
52543;DHT22;38449;52.696;6.186;2023-08-01T06:38:24;15.80;99.90
52543;DHT22;38449;52.696;6.186;2023-08-01T06:40:53;15.90;99.90
52543;DHT22;38449;52.696;6.186;2023-08-01T06:43:19;15.80;99.90
52543;DHT22;38449;52.696;6.186;2023-08-01T06:45:45;15.80;99.90
52543;DHT22;38449;52.696;6.186;2023-08-01T06:48:11;15.80;99.90
52543;DHT22;38449;52.696;6.186;2023-08-01T06:50:38;15.70;99.90
52543;DHT22;38449;52.696;6.186;2023-08-01T06:53:04;15.70;99.90
52543;DHT22;38449;52.696;6.186;2023-08-01T06:55:30;15.70;99.90
52543;DHT22;38449;52.696;6.186;2023-08-01T06:57:57;15.90;99.90
52543;DHT22;38449;52.696;6.186;2023-08-01T07:00:23;16.00;99.90
52543;DHT22;38449;52.696;6.186;2023-08-01T07:02:50;16.10;99.90
52543;DHT22;38449;52.696;6.186;2023-08-01T07:05:17;16.30;99.90
52543;DHT22;38449;52.696;6.186;2023-08-01T07:07:44;16.50;99.90
52543;DHT22;38449;52.696;6.186;2023-08-01T07:10:11;16.60;99.90
52543;DHT22;38449;52.696;6.186;2023-08-01T07:12:37;16.60;99.90
52543;DHT22;38449;52.696;6.186;2023-08-01T07:15:04;16.70;99.90
52543;DHT22;38449;52.696;6.186;2023-08-01T07:17:30;16.60;99.90
52543;DHT22;38449;52.696;6.186;2023-08-01T07:19:56;16.90;99.90
52543;DHT22;38449;52.696;6.186;2023-08-01T07:22:22;16.90;99.90
52543;DHT22;38449;52.696;6.186;2023-08-01T07:24:55;17.00;99.90
52543;DHT22;38449;52.696;6.186;2023-08-01T07:27:22;16.90;99.90
52543;DHT22;38449;52.696;6.186;2023-08-01T07:29:49;16.90;99.90
52543;DHT22;38449;52.696;6.186;2023-08-01T07:32:15;17.00;99.90
52543;DHT22;38449;52.696;6.186;2023-08-01T07:34:41;16.90;99.90
52543;DHT22;38449;52.696;6.186;2023-08-01T07:37:08;16.70;99.90
52543;DHT22;38449;52.696;6.186;2023-08-01T07:39:34;16.80;99.90
52543;DHT22;38449;52.696;6.186;2023-08-01T07:42:01;16.60;99.90
52543;DHT22;38449;52.696;6.186;2023-08-01T07:44:27;16.60;99.90
52543;DHT22;38449;52.696;6.186;2023-08-01T07:46:53;16.60;99.90
52543;DHT22;38449;52.696;6.186;2023-08-01T07:49:19;16.60;99.90
52543;DHT22;38449;52.696;6.186;2023-08-01T07:51:46;16.50;99.90
52543;DHT22;38449;52.696;6.186;2023-08-01T07:54:12;16.50;99.90
52543;DHT22;38449;52.696;6.186;2023-08-01T07:56:38;16.50;99.90
52543;DHT22;38449;52.696;6.186;2023-08-01T07:59:04;16.60;99.90
52543;DHT22;38449;52.696;6.186;2023-08-01T08:01:31;16.60;99.90
52543;DHT22;38449;52.696;6.186;2023-08-01T08:03:57;16.60;99.90
52543;DHT22;38449;52.696;6.186;2023-08-01T08:06:23;16.70;99.90
52543;DHT22;38449;52.696;6.186;2023-08-01T08:08:50;16.70;99.90
52543;DHT22;38449;52.696;6.186;2023-08-01T08:11:16;16.70;99.90
52543;DHT22;38449;52.696;6.186;2023-08-01T08:13:42;16.90;99.90
52543;DHT22;38449;52.696;6.186;2023-08-01T08:16:09;16.90;99.90
52543;DHT22;38449;52.696;6.186;2023-08-01T08:18:35;17.10;99.90
52543;DHT22;38449;52.696;6.186;2023-08-01T08:21:01;17.20;99.90
52543;DHT22;38449;52.696;6.186;2023-08-01T08:23:27;17.20;99.90
52543;DHT22;38449;52.696;6.186;2023-08-01T08:25:54;17.40;99.90
52543;DHT22;38449;52.696;6.186;2023-08-01T08:28:29;17.40;99.90
52543;DHT22;38449;52.696;6.186;2023-08-01T08:30:59;17.50;99.90
52543;DHT22;38449;52.696;6.186;2023-08-01T08:33:26;17.60;99.90
52543;DHT22;38449;52.696;6.186;2023-08-01T08:35:52;17.50;99.90
52543;DHT22;38449;52.696;6.186;2023-08-01T08:38:19;17.40;99.90
52543;DHT22;38449;52.696;6.186;2023-08-01T08:41:19;17.40;99.90
52543;DHT22;38449;52.696;6.186;2023-08-01T08:43:42;17.30;99.90
52543;DHT22;38449;52.696;6.186;2023-08-01T08:46:09;17.20;99.90
52543;DHT22;38449;52.696;6.186;2023-08-01T08:48:37;17.20;99.90
52543;DHT22;38449;52.696;6.186;2023-08-01T08:51:05;17.10;99.90
52543;DHT22;38449;52.696;6.186;2023-08-01T08:53:32;17.10;99.90
52543;DHT22;38449;52.696;6.186;2023-08-01T08:56:00;17.20;99.90
52543;DHT22;38449;52.696;6.186;2023-08-01T08:58:29;17.20;99.90
52543;DHT22;38449;52.696;6.186;2023-08-01T09:01:01;17.30;99.90
52543;DHT22;38449;52.696;6.186;2023-08-01T09:03:28;17.20;99.90
52543;DHT22;38449;52.696;6.186;2023-08-01T09:06:21;17.00;99.90
52543;DHT22;38449;52.696;6.186;2023-08-01T09:08:58;16.90;99.90
52543;DHT22;38449;52.696;6.186;2023-08-01T09:11:27;16.70;99.90
52543;DHT22;38449;52.696;6.186;2023-08-01T09:13:55;16.70;99.90
52543;DHT22;38449;52.696;6.186;2023-08-01T09:16:21;16.80;99.90
52543;DHT22;38449;52.696;6.186;2023-08-01T09:21:17;16.80;99.90
52543;DHT22;38449;52.696;6.186;2023-08-01T09:23:43;16.90;99.90
52543;DHT22;38449;52.696;6.186;2023-08-01T09:26:14;17.00;99.90
52543;DHT22;38449;52.696;6.186;2023-08-01T09:28:40;17.10;99.90
52543;DHT22;38449;52.696;6.186;2023-08-01T09:31:07;16.90;99.90
52543;DHT22;38449;52.696;6.186;2023-08-01T09:33:40;17.10;99.90
52543;DHT22;38449;52.696;6.186;2023-08-01T09:36:09;17.10;99.90
52543;DHT22;38449;52.696;6.186;2023-08-01T09:38:37;17.00;99.90
52543;DHT22;38449;52.696;6.186;2023-08-01T09:41:04;17.00;99.90
52543;DHT22;38449;52.696;6.186;2023-08-01T09:43:34;17.10;99.90
52543;DHT22;38449;52.696;6.186;2023-08-01T09:46:06;16.90;99.90
52543;DHT22;38449;52.696;6.186;2023-08-01T09:48:33;16.80;99.90
52543;DHT22;38449;52.696;6.186;2023-08-01T09:51:06;16.70;99.90
52543;DHT22;38449;52.696;6.186;2023-08-01T09:53:35;16.60;99.90
52543;DHT22;38449;52.696;6.186;2023-08-01T09:56:02;16.60;99.90
52543;DHT22;38449;52.696;6.186;2023-08-01T09:58:34;16.50;99.90
52543;DHT22;38449;52.696;6.186;2023-08-01T10:01:02;16.50;99.90
52543;DHT22;38449;52.696;6.186;2023-08-01T10:03:29;16.50;99.90
52543;DHT22;38449;52.696;6.186;2023-08-01T10:05:57;16.40;99.90
52543;DHT22;38449;52.696;6.186;2023-08-01T10:08:24;16.40;99.90
52543;DHT22;38449;52.696;6.186;2023-08-01T10:10:51;16.40;99.90
52543;DHT22;38449;52.696;6.186;2023-08-01T10:13:20;16.40;99.90
52543;DHT22;38449;52.696;6.186;2023-08-01T10:15:50;16.50;99.90
52543;DHT22;38449;52.696;6.186;2023-08-01T10:18:17;16.30;99.90
52543;DHT22;38449;52.696;6.186;2023-08-01T10:20:44;16.50;99.90
52543;DHT22;38449;52.696;6.186;2023-08-01T10:23:12;16.60;99.90
52543;DHT22;38449;52.696;6.186;2023-08-01T10:25:39;16.60;99.90
52543;DHT22;38449;52.696;6.186;2023-08-01T10:28:06;16.60;99.90
52543;DHT22;38449;52.696;6.186;2023-08-01T10:30:32;16.80;99.90
52543;DHT22;38449;52.696;6.186;2023-08-01T10:33:00;17.10;99.90
52543;DHT22;38449;52.696;6.186;2023-08-01T10:35:36;17.20;99.90
52543;DHT22;38449;52.696;6.186;2023-08-01T10:38:10;17.30;99.90
52543;DHT22;38449;52.696;6.186;2023-08-01T10:40:41;17.40;99.90
52543;DHT22;38449;52.696;6.186;2023-08-01T10:43:24;17.10;99.90
52543;DHT22;38449;52.696;6.186;2023-08-01T10:46:02;16.80;99.90
52543;DHT22;38449;52.696;6.186;2023-08-01T10:48:28;16.40;99.90
52543;DHT22;38449;52.696;6.186;2023-08-01T10:50:56;16.30;99.90
52543;DHT22;38449;52.696;6.186;2023-08-01T10:53:37;16.20;99.90
52543;DHT22;38449;52.696;6.186;2023-08-01T10:56:04;16.10;99.90
52543;DHT22;38449;52.696;6.186;2023-08-01T10:58:31;16.10;99.90
52543;DHT22;38449;52.696;6.186;2023-08-01T11:00:58;16.20;99.90
52543;DHT22;38449;52.696;6.186;2023-08-01T11:03:39;16.20;99.90
52543;DHT22;38449;52.696;6.186;2023-08-01T11:06:08;16.30;99.90
52543;DHT22;38449;52.696;6.186;2023-08-01T11:08:35;16.50;99.90
52543;DHT22;38449;52.696;6.186;2023-08-01T11:11:02;16.60;99.90
52543;DHT22;38449;52.696;6.186;2023-08-01T11:13:29;16.80;99.90
52543;DHT22;38449;52.696;6.186;2023-08-01T11:15:55;17.00;99.90
52543;DHT22;38449;52.696;6.186;2023-08-01T11:18:23;17.20;99.90
52543;DHT22;38449;52.696;6.186;2023-08-01T11:20:50;17.50;99.90
52543;DHT22;38449;52.696;6.186;2023-08-01T11:23:16;17.90;99.90
52543;DHT22;38449;52.696;6.186;2023-08-01T11:25:43;18.20;99.90
52543;DHT22;38449;52.696;6.186;2023-08-01T11:28:15;18.50;99.90
52543;DHT22;38449;52.696;6.186;2023-08-01T11:30:42;18.70;99.90
52543;DHT22;38449;52.696;6.186;2023-08-01T11:33:18;18.90;99.90
52543;DHT22;38449;52.696;6.186;2023-08-01T11:35:56;19.10;99.90
52543;DHT22;38449;52.696;6.186;2023-08-01T11:38:27;19.40;99.90
52543;DHT22;38449;52.696;6.186;2023-08-01T11:40:57;19.50;99.90
52543;DHT22;38449;52.696;6.186;2023-08-01T11:43:23;19.70;99.90
52543;DHT22;38449;52.696;6.186;2023-08-01T11:45:54;19.70;99.90
52543;DHT22;38449;52.696;6.186;2023-08-01T11:48:22;20.00;99.90
52543;DHT22;38449;52.696;6.186;2023-08-01T11:50:55;19.90;99.90
52543;DHT22;38449;52.696;6.186;2023-08-01T11:53:22;19.80;99.90
52543;DHT22;38449;52.696;6.186;2023-08-01T11:55:50;19.70;99.90
52543;DHT22;38449;52.696;6.186;2023-08-01T11:58:29;19.80;99.90
52543;DHT22;38449;52.696;6.186;2023-08-01T12:01:07;20.00;99.90
52543;DHT22;38449;52.696;6.186;2023-08-01T12:03:51;20.10;99.90
52543;DHT22;38449;52.696;6.186;2023-08-01T12:06:19;20.00;99.90
52543;DHT22;38449;52.696;6.186;2023-08-01T12:08:47;20.40;99.90
52543;DHT22;38449;52.696;6.186;2023-08-01T12:11:24;20.40;99.90
52543;DHT22;38449;52.696;6.186;2023-08-01T12:16:38;20.80;99.90
52543;DHT22;38449;52.696;6.186;2023-08-01T12:19:05;20.70;99.90
52543;DHT22;38449;52.696;6.186;2023-08-01T12:21:33;20.70;99.90
52543;DHT22;38449;52.696;6.186;2023-08-01T12:23:59;20.50;99.90
52543;DHT22;38449;52.696;6.186;2023-08-01T12:26:26;20.50;99.90
52543;DHT22;38449;52.696;6.186;2023-08-01T12:28:52;20.40;99.90
52543;DHT22;38449;52.696;6.186;2023-08-01T12:31:20;20.20;99.90
52543;DHT22;38449;52.696;6.186;2023-08-01T12:33:47;20.30;99.90
52543;DHT22;38449;52.696;6.186;2023-08-01T12:36:15;20.30;99.90
52543;DHT22;38449;52.696;6.186;2023-08-01T12:38:42;20.10;99.90
52543;DHT22;38449;52.696;6.186;2023-08-01T12:41:08;20.20;99.90
52543;DHT22;38449;52.696;6.186;2023-08-01T12:43:34;20.10;99.90
52543;DHT22;38449;52.696;6.186;2023-08-01T12:46:01;20.20;99.90
52543;DHT22;38449;52.696;6.186;2023-08-01T12:48:27;20.10;99.90
52543;DHT22;38449;52.696;6.186;2023-08-01T12:50:54;20.30;99.90
52543;DHT22;38449;52.696;6.186;2023-08-01T12:53:22;20.40;99.90
52543;DHT22;38449;52.696;6.186;2023-08-01T12:55:50;20.40;99.90
52543;DHT22;38449;52.696;6.186;2023-08-01T12:58:17;20.40;99.90
52543;DHT22;38449;52.696;6.186;2023-08-01T13:00:44;20.40;99.90
52543;DHT22;38449;52.696;6.186;2023-08-01T13:03:11;20.20;99.90
52543;DHT22;38449;52.696;6.186;2023-08-01T13:05:40;20.10;99.90
52543;DHT22;38449;52.696;6.186;2023-08-01T13:08:07;20.10;99.90
52543;DHT22;38449;52.696;6.186;2023-08-01T13:10:35;20.20;99.90
52543;DHT22;38449;52.696;6.186;2023-08-01T13:13:02;20.10;99.90
52543;DHT22;38449;52.696;6.186;2023-08-01T13:15:29;20.10;99.90
52543;DHT22;38449;52.696;6.186;2023-08-01T13:17:56;20.00;99.90
52543;DHT22;38449;52.696;6.186;2023-08-01T13:20:22;19.90;99.90
52543;DHT22;38449;52.696;6.186;2023-08-01T13:22:50;19.90;99.90
52543;DHT22;38449;52.696;6.186;2023-08-01T13:25:17;19.90;99.90
52543;DHT22;38449;52.696;6.186;2023-08-01T13:27:44;19.70;99.90
52543;DHT22;38449;52.696;6.186;2023-08-01T13:30:10;19.70;99.90
52543;DHT22;38449;52.696;6.186;2023-08-01T13:32:40;19.60;99.90
52543;DHT22;38449;52.696;6.186;2023-08-01T13:35:07;19.20;99.90
52543;DHT22;38449;52.696;6.186;2023-08-01T13:37:33;18.20;99.90
52543;DHT22;38449;52.696;6.186;2023-08-01T13:40:01;17.80;99.90
52543;DHT22;38449;52.696;6.186;2023-08-01T13:42:27;17.50;99.90
52543;DHT22;38449;52.696;6.186;2023-08-01T13:44:54;17.50;99.90
52543;DHT22;38449;52.696;6.186;2023-08-01T13:47:22;17.60;99.90
52543;DHT22;38449;52.696;6.186;2023-08-01T13:49:49;17.70;99.90
52543;DHT22;38449;52.696;6.186;2023-08-01T13:52:15;17.80;99.90
52543;DHT22;38449;52.696;6.186;2023-08-01T13:54:42;17.80;99.90
52543;DHT22;38449;52.696;6.186;2023-08-01T13:57:08;18.00;99.90
52543;DHT22;38449;52.696;6.186;2023-08-01T13:59:34;18.20;99.90
52543;DHT22;38449;52.696;6.186;2023-08-01T14:02:02;18.40;99.90
52543;DHT22;38449;52.696;6.186;2023-08-01T14:04:29;18.70;99.90
52543;DHT22;38449;52.696;6.186;2023-08-01T14:06:55;19.00;99.90
52543;DHT22;38449;52.696;6.186;2023-08-01T14:09:22;19.10;99.90
52543;DHT22;38449;52.696;6.186;2023-08-01T14:11:48;19.10;99.90
52543;DHT22;38449;52.696;6.186;2023-08-01T14:14:14;19.00;99.90
52543;DHT22;38449;52.696;6.186;2023-08-01T14:16:41;19.00;99.90
52543;DHT22;38449;52.696;6.186;2023-08-01T14:19:07;19.00;99.90
52543;DHT22;38449;52.696;6.186;2023-08-01T14:21:34;19.00;99.90
52543;DHT22;38449;52.696;6.186;2023-08-01T14:24:01;19.10;99.90
52543;DHT22;38449;52.696;6.186;2023-08-01T14:26:28;19.10;99.90
52543;DHT22;38449;52.696;6.186;2023-08-01T14:28:54;19.20;99.90
52543;DHT22;38449;52.696;6.186;2023-08-01T14:31:20;19.20;99.90
52543;DHT22;38449;52.696;6.186;2023-08-01T14:33:46;19.20;99.90
52543;DHT22;38449;52.696;6.186;2023-08-01T14:36:13;19.10;99.90
52543;DHT22;38449;52.696;6.186;2023-08-01T14:38:39;19.10;99.90
52543;DHT22;38449;52.696;6.186;2023-08-01T14:41:06;19.10;99.90
52543;DHT22;38449;52.696;6.186;2023-08-01T14:43:32;19.00;99.90
52543;DHT22;38449;52.696;6.186;2023-08-01T14:46:00;18.90;99.90
52543;DHT22;38449;52.696;6.186;2023-08-01T14:48:27;19.00;99.90
52543;DHT22;38449;52.696;6.186;2023-08-01T14:50:54;19.10;99.90
52543;DHT22;38449;52.696;6.186;2023-08-01T14:53:20;19.30;99.90
52543;DHT22;38449;52.696;6.186;2023-08-01T14:55:46;19.20;99.90
52543;DHT22;38449;52.696;6.186;2023-08-01T14:58:12;19.20;99.90
52543;DHT22;38449;52.696;6.186;2023-08-01T15:00:38;19.10;99.90
52543;DHT22;38449;52.696;6.186;2023-08-01T15:03:05;19.00;99.90
52543;DHT22;38449;52.696;6.186;2023-08-01T15:05:34;19.10;99.90
52543;DHT22;38449;52.696;6.186;2023-08-01T15:08:00;19.20;99.90
52543;DHT22;38449;52.696;6.186;2023-08-01T15:10:31;19.00;99.90
52543;DHT22;38449;52.696;6.186;2023-08-01T15:12:57;19.20;99.90
52543;DHT22;38449;52.696;6.186;2023-08-01T15:15:23;19.30;99.90
52543;DHT22;38449;52.696;6.186;2023-08-01T15:17:51;19.10;99.90
52543;DHT22;38449;52.696;6.186;2023-08-01T15:20:17;19.30;99.90
52543;DHT22;38449;52.696;6.186;2023-08-01T15:22:44;19.30;99.90
52543;DHT22;38449;52.696;6.186;2023-08-01T15:25:11;19.20;99.90
52543;DHT22;38449;52.696;6.186;2023-08-01T15:27:37;19.20;99.90
52543;DHT22;38449;52.696;6.186;2023-08-01T15:30:03;19.20;99.90
52543;DHT22;38449;52.696;6.186;2023-08-01T15:32:30;18.90;99.90
52543;DHT22;38449;52.696;6.186;2023-08-01T15:34:56;18.60;99.90
52543;DHT22;38449;52.696;6.186;2023-08-01T15:37:22;18.40;99.90